Latest Weather Observations for Canterbury

IDN60901

Issued at 9:21 pm EST Tuesday 24 May 2022 (issued every 10 minutes, with the page automatically refreshed every 10 minutes)

About weather observations | Map of Sydney area stations | Latest observations for Sydney area | Other Formats
Station Details ID: 066194 Name: CANTERBURY RACECOURSE AWS Lat: -33.91 Lon: 151.11 Height: 3.0 m
Data from the previous 72 hours. | See also: Recent months at Canterbury
Date/Time
EST
Temp
°C
App
Temp
°C
Dew
Point
°C
Rel
Hum
%
Delta-T
°C
Wind Press
QNH
hPa
Press
MSL
hPa
Rain since
9am
mm
Dir  Spd
km/h
Gust
km/h
Spd
kts
Gust
kts
24/09:00pm 12.9 13.1 12.9 100 0.0 W 4 7 2 4 - - 0.2
24/08:30pm 13.2 13.1 13.2 100 0.0 NNW 6 7 3 4 - - 0.2
24/08:00pm 12.6 13.4 12.6 100 0.0 CALM 0 0 0 0 - - 0.2
24/07:30pm 13.0 13.9 13.0 100 0.0 CALM 0 0 0 0 - - 0.2
24/07:04pm 12.4 13.1 12.2 99 0.1 CALM 0 0 0 0 - - 0.2
24/07:00pm 12.5 13.2 12.3 99 0.1 CALM 0 0 0 0 - - 0.2
24/06:36pm 11.9 12.3 11.4 97 0.3 CALM 0 0 0 0 - - 0.2
24/06:30pm 12.3 12.9 12.0 98 0.2 CALM 0 0 0 0 - - 0.2
24/06:00pm 13.0 13.7 12.1 94 0.5 CALM 0 0 0 0 - - 0.2
24/05:30pm 13.8 14.5 12.2 90 0.9 CALM 0 0 0 0 - - 0.2
24/05:00pm 15.3 15.5 11.7 79 1.9 NE 2 7 1 4 - - 0.2
24/04:30pm 16.9 16.1 11.6 71 2.9 NNE 7 9 4 5 - - 0.2
24/04:00pm 17.8 17.3 12.7 72 2.8 NNE 7 13 4 7 - - 0.2
24/03:30pm 18.8 18.6 13.6 72 3.0 ENE 7 11 4 6 - - 0.2
24/03:00pm 18.9 18.5 12.9 68 3.4 NNW 7 13 4 7 - - 0.2
24/02:30pm 18.8 18.3 12.5 67 3.5 NNE 7 13 4 7 - - 0.2
24/02:00pm 17.2 18.0 12.5 74 2.6 CALM 0 0 0 0 - - 0.2
24/01:30pm 16.4 17.5 13.5 83 1.6 CALM 0 0 0 0 - - 0.2
24/01:00pm 16.6 15.9 13.1 80 2.0 E 9 15 5 8 - - 0.2
24/12:30pm 16.3 14.8 13.0 81 1.8 SSE 13 19 7 10 - - 0.2
24/12:00pm 16.7 14.3 12.8 78 2.2 SSE 17 24 9 13 - - 0.2
24/11:30am 17.5 16.4 13.2 76 2.4 SSW 11 22 6 12 - - 0.2
24/11:00am 16.7 16.8 14.5 87 1.3 WSW 7 11 4 6 - - 0.2
24/10:30am 15.8 15.8 14.2 90 0.9 WSW 7 17 4 9 - - 0.2
24/10:00am 15.3 14.9 14.0 92 0.7 W 9 13 5 7 - - 0.2
24/09:30am 14.6 14.6 14.3 98 0.2 W 7 11 4 6 - - 0.0
24/09:00am 13.9 14.0 13.9 100 0.0 NW 6 11 3 6 - - 20.8
24/08:30am 13.3 13.0 13.3 100 0.0 NNW 7 11 4 6 - - 20.8
24/08:00am 12.5 12.1 12.5 100 0.0 NNW 6 9 3 5 - - 20.8
24/07:30am 12.4 12.0 12.4 100 0.0 NW 6 9 3 5 - - 20.8
24/07:00am 12.4 12.0 12.4 100 0.0 NW 6 9 3 5 - - 20.8
24/06:30am 12.5 12.5 12.5 100 0.0 NNW 4 9 2 5 - - 20.8
24/06:00am 12.6 13.4 12.6 100 0.0 CALM 0 0 0 0 - - 20.6
24/05:30am 12.8 12.9 12.8 100 0.0 W 4 7 2 4 - - 20.6
24/05:00am 13.0 12.8 13.0 100 0.0 W 6 11 3 6 - - 20.6
24/04:30am 12.9 12.7 12.9 100 0.0 NW 6 9 3 5 - - 20.4
24/04:00am 13.1 12.7 13.1 100 0.0 WSW 7 11 4 6 - - 19.8
24/03:30am 13.1 12.9 13.1 100 0.0 NNW 6 9 3 5 - - 18.4
24/03:00am 13.3 14.3 13.3 100 0.0 CALM 0 0 0 0 - - 16.8
24/02:50am 13.3 13.6 13.3 100 0.0 NNE 4 9 2 5 - - 16.4
24/02:36am 13.4 12.7 13.2 99 0.1 NNE 9 17 5 9 - - 16.2
24/02:30am 13.5 13.4 13.3 99 0.1 SW 6 11 3 6 - - 16.2
24/02:22am 13.6 13.3 13.4 99 0.1 S 7 11 4 6 - - 16.0
24/02:21am 13.6 13.3 13.4 99 0.1 S 7 11 4 6 - - 16.0
24/02:00am 13.8 12.1 13.6 99 0.1 S 15 26 8 14 - - 15.0
24/01:30am 13.0 12.6 13.0 100 0.0 NNW 7 13 4 7 - - 10.4
24/01:00am 12.6 12.7 12.6 100 0.0 W 4 11 2 6 - - 6.4
24/12:51am 12.5 11.2 12.5 100 0.0 NE 11 15 6 8 - - 4.2
24/12:30am 11.5 11.6 11.5 100 0.0 NW 2 11 1 6 - - 4.2
24/12:21am 11.2 10.8 11.2 100 0.0 WNW 4 9 2 5 - - 4.2
24/12:00am 11.3 11.7 11.3 100 0.0 CALM 0 0 0 0 - - 4.2
 
Date/Time
EST
Temp
°C
App
Temp
°C
Dew
Point
°C
Rel
Hum
%
Delta-T
°C
Wind Press
QNH
hPa
Press
MSL
hPa
Rain since
9am
mm
Dir  Spd
km/h
Gust
km/h
Spd
kts
Gust
kts
23/11:57pm 11.3 11.7 11.3 100 0.0 CALM 0 0 0 0 - - 4.2
23/11:37pm 11.8 12.4 11.8 100 0.0 CALM 0 0 0 0 - - 4.2
23/11:30pm 11.6 12.1 11.6 100 0.0 CALM 0 0 0 0 - - 4.2
23/11:04pm 11.7 12.2 11.7 100 0.0 CALM 0 0 0 0 - - 4.2
23/11:00pm 11.9 12.5 11.9 100 0.0 CALM 0 0 0 0 - - 4.2
23/10:30pm 12.8 13.6 12.6 99 0.1 CALM 0 0 0 0 - - 4.2
23/10:00pm 13.2 13.8 13.0 99 0.1 W 2 6 1 3 - - 4.2
23/09:30pm 13.8 14.7 13.0 95 0.4 CALM 0 0 0 0 - - 4.2
23/09:00pm 14.4 15.1 13.4 94 0.6 SSE 2 9 1 5 - - 4.2
23/08:30pm 14.5 13.9 13.5 94 0.6 SSE 9 15 5 8 - - 4.2
23/08:00pm 14.2 14.1 13.4 95 0.4 SE 6 9 3 5 - - 4.2
23/07:30pm 14.1 13.5 13.6 97 0.3 S 9 13 5 7 - - 4.2
23/07:00pm 14.0 14.2 13.1 94 0.5 SSE 4 7 2 4 - - 4.2
23/06:30pm 14.3 14.2 13.2 93 0.6 SSE 6 9 3 5 - - 4.2
23/06:00pm 14.4 14.1 13.3 93 0.6 S 7 13 4 7 - - 4.2
23/05:30pm 14.3 14.1 13.0 92 0.7 S 6 9 3 5 - - 4.2
23/05:00pm 14.5 14.2 13.2 92 0.7 S 7 11 4 6 - - 4.0
23/04:30pm 14.8 14.4 14.0 95 0.4 ESE 9 13 5 7 - - 4.0
23/04:00pm 15.2 14.4 14.1 93 0.6 SE 11 15 6 8 - - 4.0
23/03:30pm 15.5 15.1 14.0 91 0.8 E 9 13 5 7 - - 3.8
23/03:00pm 16.1 14.9 14.1 88 1.1 E 13 19 7 10 - - 3.8
23/02:30pm 16.5 15.6 14.9 90 0.9 E 13 19 7 10 - - 3.6
23/02:00pm 16.2 15.4 13.9 86 1.3 ESE 11 17 6 9 - - 3.6
23/01:30pm 16.5 15.7 14.0 85 1.4 ESE 11 19 6 10 - - 3.6
23/01:00pm 16.7 16.1 14.5 87 1.3 ENE 11 17 6 9 - - 3.6
23/12:30pm 16.4 16.4 15.3 93 0.6 E 9 13 5 7 - - 3.4
23/12:00pm 15.3 16.2 15.1 99 0.1 ESE 4 7 2 4 - - 3.2
23/11:49am 14.7 14.8 14.5 99 0.1 SSE 7 15 4 8 - - 3.2
23/11:39am 14.5 14.1 14.0 97 0.3 S 9 17 5 9 - - 2.8
23/11:30am 14.4 13.1 13.6 95 0.4 S 13 17 7 9 - - 2.8
23/11:17am 14.9 14.6 14.4 97 0.3 SSE 9 13 5 7 - - 2.6
23/11:00am 14.9 15.0 14.4 97 0.3 SSE 7 15 4 8 - - 2.0
23/10:30am 15.5 15.5 15.3 99 0.1 SE 9 13 5 7 - - 0.8
23/10:15am 15.5 15.0 14.9 96 0.3 S 11 19 6 10 - - 0.6
23/10:00am 15.7 16.8 14.7 94 0.6 WNW 2 7 1 4 - - 0.6
23/09:54am 15.7 17.2 14.7 94 0.6 CALM 0 6 0 3 - - 0.4
23/09:49am 15.7 16.9 14.9 95 0.5 W 2 7 1 4 - - 0.2
23/09:30am 15.7 16.0 14.4 92 0.7 SSE 6 13 3 7 - - 0.0
23/09:28am 15.7 15.8 14.4 92 0.7 SSE 7 17 4 9 - - 0.0
23/09:00am 15.8 15.2 13.6 87 1.2 SW 9 20 5 11 - - 2.8
23/08:30am 14.6 13.7 13.8 95 0.4 SW 11 19 6 10 - - 2.8
23/08:00am 13.5 13.3 13.5 100 0.0 WSW 7 15 4 8 - - 2.6
23/07:30am 12.9 13.8 12.9 100 0.0 CALM 0 0 0 0 - - 2.2
23/07:00am 12.5 12.9 12.5 100 0.0 WSW 2 9 1 5 - - 2.2
23/06:30am 12.5 12.9 12.5 100 0.0 WNW 2 7 1 4 - - 2.2
23/06:12am 12.4 12.8 12.4 100 0.0 W 2 7 1 4 - - 2.0
23/06:00am 12.4 12.8 12.4 100 0.0 W 2 11 1 6 - - 1.8
23/05:59am 12.4 12.4 12.4 100 0.0 W 4 11 2 6 - - 1.8
23/05:58am 12.4 12.4 12.4 100 0.0 W 4 11 2 6 - - 1.8
23/05:30am 12.4 12.0 12.4 100 0.0 W 6 9 3 5 - - 1.4
23/05:24am 12.4 11.8 12.4 100 0.0 WSW 7 9 4 5 - - 1.4
23/05:00am 12.4 11.8 12.4 100 0.0 W 7 11 4 6 - - 1.0
23/04:49am 12.4 11.8 12.4 100 0.0 SW 7 11 4 6 - - 1.0
23/04:30am 12.4 12.4 12.4 100 0.0 WNW 4 9 2 5 - - 0.6
23/04:15am 12.4 12.0 12.4 100 0.0 WNW 6 9 3 5 - - 0.4
23/04:00am 12.5 12.1 12.3 99 0.1 WNW 6 9 3 5 - - 0.4
23/03:53am 12.4 12.7 12.2 99 0.1 WNW 2 7 1 4 - - 0.0
23/03:30am 12.6 12.2 12.4 99 0.1 WNW 6 9 3 5 - - 0.0
23/03:00am 12.8 11.9 12.6 99 0.1 WSW 9 13 5 7 - - 0.0
23/02:30am 12.4 11.8 12.2 99 0.1 NNE 7 13 4 7 - - 0.0
23/02:00am 12.3 11.9 12.3 100 0.0 NW 6 11 3 6 - - 0.0
23/01:30am 12.1 12.8 12.1 100 0.0 CALM 0 7 0 4 - - 0.0
23/01:00am 12.0 11.9 12.0 100 0.0 NNW 4 7 2 4 - - 0.0
23/12:30am 11.7 12.2 11.7 100 0.0 CALM 0 0 0 0 - - 0.0
23/12:07am 12.0 10.9 12.0 100 0.0 NW 9 13 5 7 - - 0.0
23/12:00am 11.8 11.0 11.6 99 0.1 NNW 7 13 4 7 - - 0.0
 
Date/Time
EST
Temp
°C
App
Temp
°C
Dew
Point
°C
Rel
Hum
%
Delta-T
°C
Wind Press
QNH
hPa
Press
MSL
hPa
Rain since
9am
mm
Dir  Spd
km/h
Gust
km/h
Spd
kts
Gust
kts
22/11:43pm 11.0 11.3 10.8 99 0.1 CALM 0 0 0 0 - - 0.0
22/11:30pm 11.9 12.4 11.7 99 0.1 CALM 0 6 0 3 - - 0.0
22/11:00pm 12.7 12.2 12.2 97 0.3 SW 6 7 3 4 - - 0.0
22/10:30pm 12.9 12.9 12.3 96 0.3 S 4 9 2 5 - - 0.0
22/10:00pm 13.5 13.0 12.6 94 0.5 SSW 7 11 4 6 - - 0.0
22/09:30pm 13.9 13.0 12.6 92 0.7 SSW 9 15 5 8 - - 0.0
22/09:00pm 14.3 13.9 12.3 88 1.1 SW 6 9 3 5 - - 0.0
22/08:30pm 14.6 14.2 12.5 87 1.1 E 6 13 3 7 - - 0.0
22/08:00pm 14.5 13.6 12.7 89 1.0 N 9 15 5 8 - - 0.0
22/07:30pm 14.6 13.7 12.5 87 1.1 S 9 13 5 7 - - 0.0
22/07:00pm 15.0 13.4 12.7 86 1.3 S 13 22 7 12 - - 0.0
22/06:30pm 15.0 13.4 12.9 87 1.2 S 13 24 7 13 - - 0.0
22/06:00pm 15.1 14.2 12.6 85 1.4 S 9 19 5 10 - - 0.0
22/05:30pm 15.4 14.5 12.7 84 1.5 S 9 17 5 9 - - 0.0
22/05:00pm 16.3 14.1 13.4 83 1.6 S 17 28 9 15 - - 0.0
22/04:30pm 16.6 15.9 14.2 86 1.4 SSW 11 17 6 9 - - 0.0
22/04:00pm 17.1 16.3 14.0 82 1.8 S 11 17 6 9 - - 0.0
22/03:30pm 17.5 16.6 13.8 79 2.1 S 11 19 6 10 - - 0.0
22/03:00pm 18.1 17.2 13.6 75 2.6 S 11 17 6 9 - - 0.0
22/02:30pm 18.1 17.0 14.4 79 2.1 S 13 26 7 14 - - 0.0
22/02:00pm 18.5 16.5 15.0 80 2.0 SSE 19 30 10 16 - - 0.0
22/01:30pm 18.1 16.3 14.4 79 2.1 SSE 17 28 9 15 - - 0.0
22/01:00pm 18.0 16.1 14.1 78 2.2 SSE 17 24 9 13 - - 0.0
22/12:30pm 17.9 16.2 14.6 81 1.9 SSE 17 28 9 15 - - 0.0
22/12:00pm 18.0 15.7 14.1 78 2.2 SSE 19 28 10 15 - - 0.0
22/11:30am 18.5 15.5 12.0 66 3.6 SE 19 32 10 17 - - 0.0
22/11:00am 18.4 18.2 16.7 90 1.0 SSE 13 20 7 11 - - 0.0
22/10:30am 15.8 16.4 15.8 100 0.0 NNW 7 11 4 6 - - 0.0
22/10:00am 13.8 14.6 13.8 100 0.0 NW 2 7 1 4 - - 0.0
22/09:30am 13.4 13.3 13.4 100 0.0 NW 6 9 3 5 - - 0.0
22/09:00am 13.4 13.1 13.4 100 0.0 NNW 7 13 4 7 - - 5.0
22/08:30am 13.4 13.1 13.4 100 0.0 NNW 7 9 4 5 - - 5.0
22/08:00am 13.1 13.3 13.1 100 0.0 W 4 7 2 4 - - 5.0
22/07:30am 13.1 12.4 13.1 100 0.0 N 9 13 5 7 - - 5.0
22/07:00am 12.8 12.5 12.8 100 0.0 NNE 6 9 3 5 - - 5.0
22/06:53am 12.7 12.2 12.7 100 0.0 ENE 7 15 4 8 - - 5.0
22/06:37am 11.6 11.3 11.6 100 0.0 WNW 4 13 2 7 - - 5.0
22/06:30am 12.2 12.5 12.2 100 0.0 W 2 7 1 4 - - 5.0
22/06:00am 12.6 13.4 12.6 100 0.0 CALM 0 6 0 3 - - 4.8
22/05:30am 12.5 12.9 12.5 100 0.0 WSW 2 7 1 4 - - 4.8
22/05:00am 12.4 13.2 12.4 100 0.0 CALM 0 0 0 0 - - 4.8
22/04:51am 12.3 12.6 12.3 100 0.0 NW 2 7 1 4 - - 4.8
22/04:30am 12.3 13.0 12.3 100 0.0 CALM 0 0 0 0 - - 4.8
22/04:00am 12.1 12.4 12.1 100 0.0 NW 2 7 1 4 - - 4.8
22/03:47am 12.3 13.0 12.3 100 0.0 CALM 0 0 0 0 - - 4.8
22/03:38am 12.7 12.8 12.7 100 0.0 NW 4 7 2 4 - - 4.8
22/03:30am 12.6 12.1 12.6 100 0.0 NNW 7 9 4 5 - - 4.8
22/03:22am 12.5 12.1 12.5 100 0.0 NW 6 9 3 5 - - 4.8
22/03:00am 12.6 12.3 12.6 100 0.0 NW 6 11 3 6 - - 4.8
22/02:55am 12.8 12.5 12.8 100 0.0 N 6 11 3 6 - - 4.8
22/02:30am 11.8 12.4 11.8 100 0.0 CALM 0 0 0 0 - - 4.8
22/02:00am 12.5 13.3 12.5 100 0.0 CALM 0 0 0 0 - - 4.6
22/01:30am 13.1 12.9 13.1 100 0.0 NW 6 9 3 5 - - 4.6
22/01:00am 13.2 13.8 13.2 100 0.0 NW 2 7 1 4 - - 4.6
22/12:30am 13.2 13.8 13.2 100 0.0 NNW 2 6 1 3 - - 4.6
22/12:00am 13.4 13.7 13.4 100 0.0 NW 4 7 2 4 - - 4.6
 
Date/Time
EST
Temp
°C
App
Temp
°C
Dew
Point
°C
Rel
Hum
%
Delta-T
°C
Wind Press
QNH
hPa
Press
MSL
hPa
Rain since
9am
mm
Dir  Spd
km/h
Gust
km/h
Spd
kts
Gust
kts
21/11:30pm 13.8 14.6 13.8 100 0.0 W 2 7 1 4 - - 4.6
21/11:00pm 14.1 14.3 14.1 100 0.0 WSW 6 13 3 7 - - 4.6
21/10:30pm 14.2 14.2 14.2 100 0.0 NW 7 11 4 6 - - 4.4
21/10:28pm 14.2 13.8 14.2 100 0.0 NW 9 13 5 7 - - 4.4
21/10:08pm 14.3 15.3 14.3 100 0.0 WSW 2 6 1 3 - - 4.0
21/10:00pm 14.3 14.9 14.3 100 0.0 WSW 4 9 2 5 - - 4.0
21/09:30pm 14.4 14.5 14.4 100 0.0 SW 7 11 4 6 - - 3.8

Latest Capital City Observations: Canberra | Sydney | Melbourne | Brisbane | Adelaide | Perth | Hobart | Darwin

Other formats

Comma delimited format used in spreadsheet applications
http://www.bom.gov.au/fwo/IDN60901/IDN60901.94766.axf

JavaScript Object Notation format (JSON) in row-major order
http://www.bom.gov.au/fwo/IDN60901/IDN60901.94766.json

Data quality

Most of these data are generated automatically and are frequently updated. Quality checks on data are not normally performed. It is possible for incorrect values to appear. Refer to information at About Latest Weather Observations and please check the disclaimer before using these data.